Apostle Islands National Lak, Wisconsin
Current Conditions -  °F | °C
As of 9:53 AM on Friday 31 Oct 2014 (Local Time) from KASX Reporting Station
Overcast Overcast  
Wind Chill: 21°   Ceiling: 3400
Heat Index: 32°   Visibility: 10mi
Dew Point: 22°   Wind: 17mph
Humidity: 66%   Direction: 10°N
Pressure: 30.52"   Gusts: NA
Location:  46.8614°N, 90.9101°W
Report Text: KASX 311453Z AUTO 01015KT 10SM OVC034 00/M06 A3052 RMK AO2 SLP348 T00001056 51019
Loading
Personal Weather Stations






























Interactive Weather Map
Tropical Storm Tracking
New forecast layout! Learn more

10-Day Weather Forecast

Advertisements
Track Severe Weather on mobile